sensor_id;sensor_type;location;lat;lon;timestamp;P1;durP1;ratioP1;P2;durP2;ratioP2
34673;SDS011;20879;55.668;37.858;2024-01-30T00:02:25;10.48;;;5.18;;
34673;SDS011;20879;55.668;37.858;2024-01-30T00:07:36;14.52;;;8.18;;
34673;SDS011;20879;55.668;37.858;2024-01-30T00:12:43;11.63;;;6.28;;
34673;SDS011;20879;55.668;37.858;2024-01-30T00:17:54;9.75;;;5.40;;
34673;SDS011;20879;55.668;37.858;2024-01-30T00:23:00;16.88;;;8.95;;
34673;SDS011;20879;55.668;37.858;2024-01-30T00:28:07;13.80;;;8.40;;
34673;SDS011;20879;55.668;37.858;2024-01-30T00:33:12;10.40;;;6.38;;
34673;SDS011;20879;55.668;37.858;2024-01-30T00:38:32;14.18;;;6.72;;
34673;SDS011;20879;55.668;37.858;2024-01-30T00:43:40;11.38;;;6.43;;
34673;SDS011;20879;55.668;37.858;2024-01-30T00:48:47;8.85;;;5.28;;
34673;SDS011;20879;55.668;37.858;2024-01-30T00:53:58;10.75;;;5.07;;
34673;SDS011;20879;55.668;37.858;2024-01-30T00:59:08;10.00;;;6.03;;
34673;SDS011;20879;55.668;37.858;2024-01-30T01:04:15;7.75;;;4.95;;
34673;SDS011;20879;55.668;37.858;2024-01-30T01:09:25;10.68;;;5.88;;
34673;SDS011;20879;55.668;37.858;2024-01-30T01:14:33;11.90;;;6.45;;
34673;SDS011;20879;55.668;37.858;2024-01-30T01:19:43;10.65;;;6.20;;
34673;SDS011;20879;55.668;37.858;2024-01-30T01:24:53;9.52;;;5.75;;
34673;SDS011;20879;55.668;37.858;2024-01-30T01:30:09;7.65;;;5.72;;
34673;SDS011;20879;55.668;37.858;2024-01-30T01:35:21;14.70;;;8.75;;
34673;SDS011;20879;55.668;37.858;2024-01-30T01:40:29;11.88;;;7.32;;
34673;SDS011;20879;55.668;37.858;2024-01-30T01:45:44;10.15;;;5.38;;
34673;SDS011;20879;55.668;37.858;2024-01-30T01:50:50;9.73;;;6.03;;
34673;SDS011;20879;55.668;37.858;2024-01-30T01:55:56;7.75;;;4.75;;
34673;SDS011;20879;55.668;37.858;2024-01-30T02:01:05;10.20;;;5.50;;
34673;SDS011;20879;55.668;37.858;2024-01-30T02:06:09;6.95;;;4.65;;
34673;SDS011;20879;55.668;37.858;2024-01-30T02:16:42;11.50;;;7.03;;
34673;SDS011;20879;55.668;37.858;2024-01-30T02:21:57;10.67;;;6.53;;
34673;SDS011;20879;55.668;37.858;2024-01-30T02:27:06;7.43;;;4.00;;
34673;SDS011;20879;55.668;37.858;2024-01-30T02:32:17;10.15;;;6.55;;
34673;SDS011;20879;55.668;37.858;2024-01-30T02:37:29;10.95;;;5.00;;
34673;SDS011;20879;55.668;37.858;2024-01-30T02:42:40;8.17;;;4.87;;
34673;SDS011;20879;55.668;37.858;2024-01-30T02:47:49;7.35;;;4.80;;
34673;SDS011;20879;55.668;37.858;2024-01-30T02:53:02;9.18;;;4.95;;
34673;SDS011;20879;55.668;37.858;2024-01-30T02:58:08;12.20;;;6.65;;
34673;SDS011;20879;55.668;37.858;2024-01-30T03:03:13;12.27;;;6.40;;
34673;SDS011;20879;55.668;37.858;2024-01-30T03:08:27;12.30;;;6.65;;
34673;SDS011;20879;55.668;37.858;2024-01-30T03:13:38;7.43;;;4.72;;
34673;SDS011;20879;55.668;37.858;2024-01-30T03:18:47;9.40;;;4.70;;
34673;SDS011;20879;55.668;37.858;2024-01-30T03:24:00;8.60;;;5.03;;
34673;SDS011;20879;55.668;37.858;2024-01-30T03:29:06;7.72;;;5.00;;
34673;SDS011;20879;55.668;37.858;2024-01-30T03:34:11;9.43;;;5.97;;
34673;SDS011;20879;55.668;37.858;2024-01-30T03:39:27;6.90;;;4.97;;
34673;SDS011;20879;55.668;37.858;2024-01-30T03:44:39;6.32;;;3.88;;
34673;SDS011;20879;55.668;37.858;2024-01-30T03:49:46;8.32;;;4.55;;
34673;SDS011;20879;55.668;37.858;2024-01-30T03:54:53;7.47;;;4.53;;
34673;SDS011;20879;55.668;37.858;2024-01-30T04:00:15;5.90;;;3.85;;
34673;SDS011;20879;55.668;37.858;2024-01-30T04:05:21;7.55;;;4.78;;
34673;SDS011;20879;55.668;37.858;2024-01-30T04:10:34;9.43;;;5.70;;
34673;SDS011;20879;55.668;37.858;2024-01-30T04:15:42;8.30;;;4.90;;
34673;SDS011;20879;55.668;37.858;2024-01-30T04:20:53;8.80;;;5.43;;
34673;SDS011;20879;55.668;37.858;2024-01-30T04:26:06;10.93;;;6.57;;
34673;SDS011;20879;55.668;37.858;2024-01-30T04:31:15;12.45;;;5.63;;
34673;SDS011;20879;55.668;37.858;2024-01-30T04:36:30;10.15;;;5.65;;
34673;SDS011;20879;55.668;37.858;2024-01-30T04:41:43;8.35;;;4.45;;
34673;SDS011;20879;55.668;37.858;2024-01-30T04:46:51;8.60;;;5.30;;
34673;SDS011;20879;55.668;37.858;2024-01-30T04:52:02;8.32;;;5.43;;
34673;SDS011;20879;55.668;37.858;2024-01-30T04:57:15;6.50;;;4.43;;
34673;SDS011;20879;55.668;37.858;2024-01-30T05:02:19;6.80;;;4.00;;
34673;SDS011;20879;55.668;37.858;2024-01-30T05:07:30;7.25;;;4.45;;
34673;SDS011;20879;55.668;37.858;2024-01-30T05:12:39;9.95;;;6.63;;
34673;SDS011;20879;55.668;37.858;2024-01-30T05:17:49;7.95;;;4.68;;
34673;SDS011;20879;55.668;37.858;2024-01-30T05:23:00;8.05;;;5.07;;
34673;SDS011;20879;55.668;37.858;2024-01-30T05:28:13;7.47;;;4.53;;
34673;SDS011;20879;55.668;37.858;2024-01-30T05:33:20;6.45;;;4.05;;
34673;SDS011;20879;55.668;37.858;2024-01-30T05:38:37;11.73;;;6.55;;
34673;SDS011;20879;55.668;37.858;2024-01-30T05:43:50;8.70;;;4.90;;
34673;SDS011;20879;55.668;37.858;2024-01-30T05:49:07;10.15;;;5.40;;
34673;SDS011;20879;55.668;37.858;2024-01-30T05:54:20;8.35;;;5.15;;
34673;SDS011;20879;55.668;37.858;2024-01-30T05:59:38;10.02;;;6.57;;
34673;SDS011;20879;55.668;37.858;2024-01-30T06:04:43;13.07;;;6.53;;
34673;SDS011;20879;55.668;37.858;2024-01-30T06:09:50;8.73;;;5.97;;
34673;SDS011;20879;55.668;37.858;2024-01-30T06:14:59;9.93;;;5.45;;
34673;SDS011;20879;55.668;37.858;2024-01-30T06:20:16;10.55;;;6.60;;
34673;SDS011;20879;55.668;37.858;2024-01-30T06:25:23;13.07;;;7.55;;
34673;SDS011;20879;55.668;37.858;2024-01-30T06:30:39;8.88;;;5.78;;
34673;SDS011;20879;55.668;37.858;2024-01-30T06:35:49;11.60;;;6.40;;
34673;SDS011;20879;55.668;37.858;2024-01-30T06:40:53;13.85;;;7.00;;
34673;SDS011;20879;55.668;37.858;2024-01-30T06:46:06;11.68;;;5.57;;
34673;SDS011;20879;55.668;37.858;2024-01-30T06:51:25;14.50;;;7.60;;
34673;SDS011;20879;55.668;37.858;2024-01-30T06:56:34;11.00;;;5.55;;
34673;SDS011;20879;55.668;37.858;2024-01-30T07:01:41;13.43;;;7.05;;
34673;SDS011;20879;55.668;37.858;2024-01-30T07:06:45;14.63;;;7.63;;
34673;SDS011;20879;55.668;37.858;2024-01-30T07:12:00;11.45;;;6.25;;
34673;SDS011;20879;55.668;37.858;2024-01-30T07:17:13;6.63;;;4.55;;
34673;SDS011;20879;55.668;37.858;2024-01-30T07:27:43;10.82;;;5.78;;
34673;SDS011;20879;55.668;37.858;2024-01-30T07:32:50;12.90;;;5.68;;
34673;SDS011;20879;55.668;37.858;2024-01-30T07:38:07;12.73;;;6.35;;
34673;SDS011;20879;55.668;37.858;2024-01-30T07:43:13;13.20;;;8.27;;
34673;SDS011;20879;55.668;37.858;2024-01-30T07:48:25;11.55;;;7.35;;
34673;SDS011;20879;55.668;37.858;2024-01-30T07:53:29;15.18;;;6.85;;
34673;SDS011;20879;55.668;37.858;2024-01-30T07:58:35;11.57;;;6.03;;
34673;SDS011;20879;55.668;37.858;2024-01-30T08:03:41;16.50;;;8.30;;
34673;SDS011;20879;55.668;37.858;2024-01-30T08:08:52;10.13;;;5.70;;
34673;SDS011;20879;55.668;37.858;2024-01-30T08:14:04;10.55;;;6.35;;
34673;SDS011;20879;55.668;37.858;2024-01-30T08:19:18;11.18;;;6.10;;
34673;SDS011;20879;55.668;37.858;2024-01-30T08:24:26;20.08;;;9.23;;
34673;SDS011;20879;55.668;37.858;2024-01-30T08:29:31;9.77;;;6.43;;
34673;SDS011;20879;55.668;37.858;2024-01-30T08:34:37;12.45;;;7.45;;
34673;SDS011;20879;55.668;37.858;2024-01-30T08:39:54;9.20;;;5.55;;
34673;SDS011;20879;55.668;37.858;2024-01-30T08:45:09;11.77;;;6.70;;
34673;SDS011;20879;55.668;37.858;2024-01-30T08:50:17;14.32;;;6.55;;
34673;SDS011;20879;55.668;37.858;2024-01-30T08:55:23;15.35;;;8.65;;
34673;SDS011;20879;55.668;37.858;2024-01-30T09:00:37;18.10;;;9.20;;
34673;SDS011;20879;55.668;37.858;2024-01-30T09:05:44;17.90;;;9.02;;
34673;SDS011;20879;55.668;37.858;2024-01-30T09:10:54;14.27;;;8.10;;
34673;SDS011;20879;55.668;37.858;2024-01-30T09:16:05;12.15;;;6.47;;
34673;SDS011;20879;55.668;37.858;2024-01-30T09:21:18;14.80;;;8.00;;
34673;SDS011;20879;55.668;37.858;2024-01-30T09:26:29;13.68;;;7.45;;
34673;SDS011;20879;55.668;37.858;2024-01-30T09:31:36;13.25;;;8.00;;
34673;SDS011;20879;55.668;37.858;2024-01-30T09:36:47;12.77;;;8.00;;
34673;SDS011;20879;55.668;37.858;2024-01-30T09:42:00;16.73;;;7.97;;
34673;SDS011;20879;55.668;37.858;2024-01-30T09:47:10;8.27;;;4.90;;
34673;SDS011;20879;55.668;37.858;2024-01-30T09:52:19;17.38;;;8.82;;
34673;SDS011;20879;55.668;37.858;2024-01-30T09:57:38;11.98;;;6.53;;
34673;SDS011;20879;55.668;37.858;2024-01-30T10:02:43;10.02;;;6.03;;
34673;SDS011;20879;55.668;37.858;2024-01-30T10:07:58;12.73;;;7.82;;
34673;SDS011;20879;55.668;37.858;2024-01-30T10:13:08;16.05;;;8.02;;
34673;SDS011;20879;55.668;37.858;2024-01-30T10:18:24;14.38;;;8.15;;
34673;SDS011;20879;55.668;37.858;2024-01-30T10:23:32;16.52;;;9.13;;
34673;SDS011;20879;55.668;37.858;2024-01-30T10:28:42;13.70;;;8.30;;
34673;SDS011;20879;55.668;37.858;2024-01-30T10:33:50;13.65;;;8.63;;
34673;SDS011;20879;55.668;37.858;2024-01-30T10:39:19;19.17;;;8.18;;
34673;SDS011;20879;55.668;37.858;2024-01-30T10:44:27;15.77;;;8.68;;
34673;SDS011;20879;55.668;37.858;2024-01-30T10:49:34;17.27;;;8.98;;
34673;SDS011;20879;55.668;37.858;2024-01-30T10:54:44;13.13;;;8.00;;
34673;SDS011;20879;55.668;37.858;2024-01-30T11:00:11;17.00;;;7.95;;
34673;SDS011;20879;55.668;37.858;2024-01-30T11:05:29;8.35;;;4.65;;
34673;SDS011;20879;55.668;37.858;2024-01-30T11:10:45;16.83;;;9.18;;
34673;SDS011;20879;55.668;37.858;2024-01-30T11:15:51;15.32;;;8.02;;
34673;SDS011;20879;55.668;37.858;2024-01-30T11:20:58;14.25;;;7.70;;
34673;SDS011;20879;55.668;37.858;2024-01-30T11:26:06;15.13;;;8.73;;
34673;SDS011;20879;55.668;37.858;2024-01-30T11:36:26;15.38;;;8.20;;
34673;SDS011;20879;55.668;37.858;2024-01-30T11:41:34;12.05;;;7.25;;
34673;SDS011;20879;55.668;37.858;2024-01-30T11:46:42;12.20;;;7.10;;
34673;SDS011;20879;55.668;37.858;2024-01-30T11:52:01;13.52;;;8.20;;
34673;SDS011;20879;55.668;37.858;2024-01-30T11:57:10;16.80;;;8.98;;
34673;SDS011;20879;55.668;37.858;2024-01-30T12:02:16;17.67;;;8.50;;
34673;SDS011;20879;55.668;37.858;2024-01-30T12:07:22;13.02;;;7.43;;
34673;SDS011;20879;55.668;37.858;2024-01-30T12:12:30;14.05;;;8.38;;
34673;SDS011;20879;55.668;37.858;2024-01-30T12:17:38;9.00;;;5.70;;
34673;SDS011;20879;55.668;37.858;2024-01-30T12:22:44;14.65;;;8.27;;
34673;SDS011;20879;55.668;37.858;2024-01-30T12:27:57;17.48;;;8.85;;
34673;SDS011;20879;55.668;37.858;2024-01-30T12:33:17;18.25;;;8.95;;
34673;SDS011;20879;55.668;37.858;2024-01-30T12:38:22;15.73;;;8.50;;
34673;SDS011;20879;55.668;37.858;2024-01-30T12:48:37;14.65;;;7.70;;
34673;SDS011;20879;55.668;37.858;2024-01-30T12:53:42;17.33;;;9.48;;
34673;SDS011;20879;55.668;37.858;2024-01-30T12:58:57;19.88;;;10.25;;
34673;SDS011;20879;55.668;37.858;2024-01-30T13:09:20;18.35;;;9.18;;
34673;SDS011;20879;55.668;37.858;2024-01-30T13:14:25;16.50;;;6.55;;
34673;SDS011;20879;55.668;37.858;2024-01-30T13:19:39;14.98;;;8.18;;
34673;SDS011;20879;55.668;37.858;2024-01-30T13:24:45;19.38;;;9.60;;
34673;SDS011;20879;55.668;37.858;2024-01-30T13:29:53;17.73;;;9.00;;
34673;SDS011;20879;55.668;37.858;2024-01-30T13:35:12;19.58;;;10.00;;
34673;SDS011;20879;55.668;37.858;2024-01-30T13:40:22;15.10;;;7.93;;
34673;SDS011;20879;55.668;37.858;2024-01-30T13:45:32;18.83;;;9.23;;
34673;SDS011;20879;55.668;37.858;2024-01-30T13:50:40;18.35;;;9.60;;
34673;SDS011;20879;55.668;37.858;2024-01-30T13:55:47;17.98;;;8.45;;
34673;SDS011;20879;55.668;37.858;2024-01-30T14:00:58;20.27;;;9.40;;
34673;SDS011;20879;55.668;37.858;2024-01-30T14:06:14;19.15;;;9.23;;
34673;SDS011;20879;55.668;37.858;2024-01-30T14:11:19;16.30;;;8.93;;
34673;SDS011;20879;55.668;37.858;2024-01-30T14:16:25;13.35;;;6.60;;
34673;SDS011;20879;55.668;37.858;2024-01-30T14:21:40;16.73;;;9.63;;
34673;SDS011;20879;55.668;37.858;2024-01-30T14:26:46;13.45;;;7.93;;
34673;SDS011;20879;55.668;37.858;2024-01-30T14:31:53;15.88;;;8.65;;
34673;SDS011;20879;55.668;37.858;2024-01-30T14:42:21;11.00;;;6.22;;
34673;SDS011;20879;55.668;37.858;2024-01-30T14:47:31;18.13;;;9.30;;
34673;SDS011;20879;55.668;37.858;2024-01-30T14:52:42;22.13;;;7.75;;
34673;SDS011;20879;55.668;37.858;2024-01-30T14:57:53;19.00;;;9.02;;
34673;SDS011;20879;55.668;37.858;2024-01-30T15:03:01;15.75;;;8.95;;
34673;SDS011;20879;55.668;37.858;2024-01-30T15:13:30;18.50;;;8.13;;
34673;SDS011;20879;55.668;37.858;2024-01-30T15:18:34;18.90;;;9.68;;
34673;SDS011;20879;55.668;37.858;2024-01-30T15:23:41;16.25;;;9.18;;
34673;SDS011;20879;55.668;37.858;2024-01-30T15:28:53;15.13;;;8.38;;
34673;SDS011;20879;55.668;37.858;2024-01-30T15:34:05;15.40;;;8.75;;
34673;SDS011;20879;55.668;37.858;2024-01-30T15:39:20;19.75;;;9.98;;
34673;SDS011;20879;55.668;37.858;2024-01-30T15:44:33;14.82;;;8.60;;
34673;SDS011;20879;55.668;37.858;2024-01-30T15:49:44;15.50;;;8.93;;
34673;SDS011;20879;55.668;37.858;2024-01-30T15:54:50;15.95;;;8.73;;
34673;SDS011;20879;55.668;37.858;2024-01-30T15:59:57;17.77;;;9.68;;
34673;SDS011;20879;55.668;37.858;2024-01-30T16:05:13;24.45;;;10.43;;
34673;SDS011;20879;55.668;37.858;2024-01-30T16:10:19;16.83;;;9.95;;
34673;SDS011;20879;55.668;37.858;2024-01-30T16:15:28;19.17;;;10.00;;
34673;SDS011;20879;55.668;37.858;2024-01-30T16:20:38;15.50;;;7.47;;
34673;SDS011;20879;55.668;37.858;2024-01-30T16:25:45;21.25;;;10.57;;
34673;SDS011;20879;55.668;37.858;2024-01-30T16:31:01;19.47;;;9.23;;
34673;SDS011;20879;55.668;37.858;2024-01-30T16:36:23;18.67;;;10.73;;
34673;SDS011;20879;55.668;37.858;2024-01-30T16:41:31;21.52;;;10.85;;
34673;SDS011;20879;55.668;37.858;2024-01-30T16:46:43;18.23;;;10.50;;
34673;SDS011;20879;55.668;37.858;2024-01-30T16:51:59;20.08;;;11.00;;
34673;SDS011;20879;55.668;37.858;2024-01-30T16:57:12;22.30;;;11.07;;
34673;SDS011;20879;55.668;37.858;2024-01-30T17:02:20;22.77;;;11.70;;
34673;SDS011;20879;55.668;37.858;2024-01-30T17:07:34;18.38;;;10.93;;
34673;SDS011;20879;55.668;37.858;2024-01-30T17:18:19;22.45;;;11.43;;
34673;SDS011;20879;55.668;37.858;2024-01-30T17:23:25;20.90;;;11.23;;
34673;SDS011;20879;55.668;37.858;2024-01-30T17:28:36;20.52;;;10.75;;
34673;SDS011;20879;55.668;37.858;2024-01-30T17:33:47;17.48;;;9.55;;
34673;SDS011;20879;55.668;37.858;2024-01-30T17:39:09;19.73;;;10.95;;
34673;SDS011;20879;55.668;37.858;2024-01-30T17:44:19;24.85;;;11.38;;
34673;SDS011;20879;55.668;37.858;2024-01-30T17:49:30;16.48;;;8.10;;
34673;SDS011;20879;55.668;37.858;2024-01-30T17:54:41;9.85;;;6.22;;
34673;SDS011;20879;55.668;37.858;2024-01-30T18:00:02;20.45;;;11.23;;
34673;SDS011;20879;55.668;37.858;2024-01-30T18:05:12;23.77;;;11.35;;
34673;SDS011;20879;55.668;37.858;2024-01-30T18:10:24;25.80;;;11.43;;
34673;SDS011;20879;55.668;37.858;2024-01-30T18:15:38;21.95;;;11.85;;
34673;SDS011;20879;55.668;37.858;2024-01-30T18:20:46;21.48;;;11.70;;
34673;SDS011;20879;55.668;37.858;2024-01-30T18:25:53;21.15;;;11.55;;
34673;SDS011;20879;55.668;37.858;2024-01-30T18:31:03;19.73;;;10.40;;
34673;SDS011;20879;55.668;37.858;2024-01-30T18:36:10;24.13;;;11.65;;
34673;SDS011;20879;55.668;37.858;2024-01-30T18:41:18;24.35;;;11.50;;
34673;SDS011;20879;55.668;37.858;2024-01-30T18:46:28;24.33;;;12.57;;
34673;SDS011;20879;55.668;37.858;2024-01-30T18:51:52;24.33;;;12.63;;
34673;SDS011;20879;55.668;37.858;2024-01-30T18:56:59;29.55;;;14.45;;
34673;SDS011;20879;55.668;37.858;2024-01-30T19:02:10;24.52;;;12.93;;
34673;SDS011;20879;55.668;37.858;2024-01-30T19:07:18;24.52;;;12.93;;
34673;SDS011;20879;55.668;37.858;2024-01-30T19:12:34;22.15;;;12.18;;
34673;SDS011;20879;55.668;37.858;2024-01-30T19:17:53;24.75;;;12.70;;
34673;SDS011;20879;55.668;37.858;2024-01-30T19:23:00;22.33;;;13.05;;
34673;SDS011;20879;55.668;37.858;2024-01-30T19:28:11;23.27;;;12.93;;
34673;SDS011;20879;55.668;37.858;2024-01-30T19:33:19;27.52;;;13.80;;
34673;SDS011;20879;55.668;37.858;2024-01-30T19:38:27;27.13;;;14.35;;
34673;SDS011;20879;55.668;37.858;2024-01-30T19:43:32;29.67;;;14.85;;
34673;SDS011;20879;55.668;37.858;2024-01-30T19:48:42;24.95;;;14.45;;
34673;SDS011;20879;55.668;37.858;2024-01-30T19:53:53;26.67;;;13.73;;
34673;SDS011;20879;55.668;37.858;2024-01-30T19:58:59;30.45;;;14.82;;
34673;SDS011;20879;55.668;37.858;2024-01-30T20:04:04;28.90;;;13.88;;
34673;SDS011;20879;55.668;37.858;2024-01-30T20:09:17;26.55;;;13.35;;
34673;SDS011;20879;55.668;37.858;2024-01-30T20:14:29;18.77;;;9.60;;
34673;SDS011;20879;55.668;37.858;2024-01-30T20:19:36;27.73;;;13.25;;
34673;SDS011;20879;55.668;37.858;2024-01-30T20:24:54;20.75;;;9.75;;
34673;SDS011;20879;55.668;37.858;2024-01-30T20:30:13;27.83;;;13.88;;
34673;SDS011;20879;55.668;37.858;2024-01-30T20:35:20;24.52;;;12.25;;
34673;SDS011;20879;55.668;37.858;2024-01-30T20:40:32;23.55;;;11.75;;
34673;SDS011;20879;55.668;37.858;2024-01-30T20:45:42;26.17;;;12.60;;
34673;SDS011;20879;55.668;37.858;2024-01-30T20:50:47;23.67;;;11.60;;
34673;SDS011;20879;55.668;37.858;2024-01-30T20:55:54;25.25;;;12.02;;
34673;SDS011;20879;55.668;37.858;2024-01-30T21:01:02;26.70;;;13.50;;
34673;SDS011;20879;55.668;37.858;2024-01-30T21:06:12;15.73;;;9.52;;
34673;SDS011;20879;55.668;37.858;2024-01-30T21:11:25;21.38;;;11.55;;
34673;SDS011;20879;55.668;37.858;2024-01-30T21:16:30;25.50;;;13.02;;
34673;SDS011;20879;55.668;37.858;2024-01-30T21:21:41;23.05;;;11.07;;
34673;SDS011;20879;55.668;37.858;2024-01-30T21:26:54;24.75;;;11.63;;
34673;SDS011;20879;55.668;37.858;2024-01-30T21:32:01;24.25;;;12.40;;
34673;SDS011;20879;55.668;37.858;2024-01-30T21:37:10;27.02;;;13.98;;
34673;SDS011;20879;55.668;37.858;2024-01-30T21:42:22;25.85;;;13.68;;
34673;SDS011;20879;55.668;37.858;2024-01-30T21:47:34;26.25;;;13.93;;
34673;SDS011;20879;55.668;37.858;2024-01-30T21:52:39;28.67;;;13.77;;
34673;SDS011;20879;55.668;37.858;2024-01-30T21:57:47;25.65;;;11.43;;
34673;SDS011;20879;55.668;37.858;2024-01-30T22:02:52;27.48;;;11.95;;
34673;SDS011;20879;55.668;37.858;2024-01-30T22:08:00;28.25;;;13.77;;
34673;SDS011;20879;55.668;37.858;2024-01-30T22:13:14;29.05;;;15.25;;
34673;SDS011;20879;55.668;37.858;2024-01-30T22:18:19;26.17;;;14.00;;
34673;SDS011;20879;55.668;37.858;2024-01-30T22:23:30;26.08;;;14.20;;
34673;SDS011;20879;55.668;37.858;2024-01-30T22:28:50;26.98;;;14.18;;
34673;SDS011;20879;55.668;37.858;2024-01-30T22:33:57;24.23;;;13.90;;
34673;SDS011;20879;55.668;37.858;2024-01-30T22:39:02;21.40;;;12.95;;
34673;SDS011;20879;55.668;37.858;2024-01-30T22:44:12;26.17;;;14.68;;
34673;SDS011;20879;55.668;37.858;2024-01-30T22:49:18;24.98;;;11.35;;
34673;SDS011;20879;55.668;37.858;2024-01-30T22:54:29;30.15;;;14.57;;
34673;SDS011;20879;55.668;37.858;2024-01-30T22:59:47;28.65;;;15.70;;
34673;SDS011;20879;55.668;37.858;2024-01-30T23:04:52;26.20;;;14.07;;
34673;SDS011;20879;55.668;37.858;2024-01-30T23:10:05;23.13;;;14.13;;
34673;SDS011;20879;55.668;37.858;2024-01-30T23:15:19;25.40;;;14.13;;
34673;SDS011;20879;55.668;37.858;2024-01-30T23:20:26;27.23;;;14.25;;
34673;SDS011;20879;55.668;37.858;2024-01-30T23:25:31;31.40;;;15.90;;
34673;SDS011;20879;55.668;37.858;2024-01-30T23:30:41;31.95;;;16.83;;
34673;SDS011;20879;55.668;37.858;2024-01-30T23:35:46;29.73;;;14.95;;
34673;SDS011;20879;55.668;37.858;2024-01-30T23:40:59;30.35;;;15.45;;
34673;SDS011;20879;55.668;37.858;2024-01-30T23:46:16;30.83;;;16.67;;
34673;SDS011;20879;55.668;37.858;2024-01-30T23:51:26;30.00;;;15.52;;
34673;SDS011;20879;55.668;37.858;2024-01-30T23:56:37;30.42;;;16.95;;
